createdAt,value
2019-04-06T00:01:06.666Z,0
2019-04-06T00:02:16.732Z,0
2019-04-06T00:03:26.650Z,0
2019-04-06T00:04:36.578Z,0
2019-04-06T00:05:46.521Z,0
2019-04-06T00:06:56.445Z,0
2019-04-06T00:08:06.419Z,0
2019-04-06T00:09:16.344Z,0
2019-04-06T00:10:26.404Z,0
2019-04-06T00:11:36.320Z,0
2019-04-06T00:12:46.338Z,0
2019-04-06T00:13:56.476Z,0
2019-04-06T00:15:06.397Z,0
2019-04-06T00:16:16.368Z,0
2019-04-06T00:17:26.289Z,0
2019-04-06T00:18:36.220Z,0
2019-04-06T00:19:46.252Z,0
2019-04-06T00:20:56.194Z,0
2019-04-06T00:22:06.130Z,0
2019-04-06T00:23:16.060Z,0
2019-04-06T00:24:26.048Z,0
2019-04-06T00:25:46.623Z,0
2019-04-06T00:26:56.546Z,0
2019-04-06T00:28:06.476Z,0
2019-04-06T00:29:16.462Z,0
2019-04-06T00:30:26.377Z,0
2019-04-06T00:31:36.442Z,0
2019-04-06T00:32:46.377Z,0
2019-04-06T00:33:56.337Z,0
2019-04-06T00:35:06.272Z,0
2019-04-06T00:36:16.240Z,0
2019-04-06T00:37:26.207Z,0
2019-04-06T00:38:38.620Z,0
2019-04-06T00:39:48.567Z,0
2019-04-06T00:40:58.527Z,0
2019-04-06T00:42:08.489Z,0
2019-04-06T00:43:18.410Z,0
2019-04-06T00:44:28.395Z,0
2019-04-06T00:45:38.317Z,0
2019-04-06T00:46:48.238Z,0
2019-04-06T00:47:58.175Z,0
2019-04-06T00:49:08.262Z,0
2019-04-06T00:50:18.185Z,0
2019-04-06T00:51:28.110Z,0
2019-04-06T00:52:38.028Z,0
2019-04-06T00:53:47.950Z,0
2019-04-06T00:54:57.978Z,0
2019-04-06T00:56:07.895Z,0
2019-04-06T00:57:17.832Z,0
2019-04-06T00:58:27.795Z,0
2019-04-06T00:59:37.805Z,0
2019-04-06T01:00:47.949Z,0
2019-04-06T01:01:58.001Z,0
2019-04-06T01:03:07.964Z,0
2019-04-06T01:04:17.880Z,0
2019-04-06T01:05:27.826Z,0
2019-04-06T01:06:37.871Z,0
2019-04-06T01:07:47.788Z,0
2019-04-06T01:08:57.717Z,0
2019-04-06T01:10:07.666Z,0
2019-04-06T01:11:17.586Z,0
2019-04-06T01:12:27.555Z,0
2019-04-06T01:13:37.495Z,0
2019-04-06T01:14:47.501Z,0
2019-04-06T01:15:57.439Z,0
2019-04-06T01:17:07.494Z,0
2019-04-06T01:18:17.367Z,0
2019-04-06T01:19:27.289Z,0
2019-04-06T01:20:37.354Z,0
2019-04-06T01:21:47.298Z,0
2019-04-06T01:22:57.227Z,0
2019-04-06T01:24:07.283Z,0
2019-04-06T01:25:17.235Z,0
2019-04-06T01:26:27.151Z,0
2019-04-06T01:27:37.070Z,0
2019-04-06T01:28:47.086Z,0
2019-04-06T01:29:57.114Z,0
2019-04-06T01:31:07.052Z,0
2019-04-06T01:32:16.977Z,0
2019-04-06T01:33:26.974Z,0
2019-04-06T01:34:36.931Z,0
2019-04-06T01:35:46.951Z,0
2019-04-06T01:36:56.950Z,0
2019-04-06T01:38:06.889Z,0
2019-04-06T01:39:16.826Z,0
2019-04-06T01:40:26.755Z,0
2019-04-06T01:41:36.724Z,0
2019-04-06T01:42:46.392Z,0
2019-04-06T01:43:56.307Z,0
2019-04-06T01:45:06.225Z,0
2019-04-06T01:46:16.141Z,0
2019-04-06T01:47:26.201Z,0
2019-04-06T01:48:36.126Z,0
2019-04-06T01:49:46.068Z,0
2019-04-06T01:50:55.992Z,0
2019-04-06T01:52:05.924Z,0
2019-04-06T01:53:15.963Z,0
2019-04-06T01:54:26.004Z,0
2019-04-06T01:55:35.931Z,0
2019-04-06T01:56:45.991Z,0
2019-04-06T01:57:56.021Z,0
2019-04-06T01:59:05.943Z,0
2019-04-06T02:00:15.987Z,0
2019-04-06T02:01:25.968Z,0
2019-04-06T02:02:35.917Z,0
2019-04-06T02:03:45.841Z,0
2019-04-06T02:04:55.931Z,0
2019-04-06T02:06:05.913Z,0
2019-04-06T02:07:15.839Z,0
2019-04-06T02:08:25.759Z,0
2019-04-06T02:09:35.696Z,0
2019-04-06T02:10:45.618Z,0
2019-04-06T02:11:55.539Z,0
2019-04-06T02:13:05.525Z,0
2019-04-06T02:14:15.506Z,0
2019-04-06T02:15:25.180Z,0
2019-04-06T02:16:35.197Z,0
2019-04-06T02:17:45.178Z,0
2019-04-06T02:18:55.119Z,0
2019-04-06T02:20:04.784Z,0
2019-04-06T02:21:14.811Z,0
2019-04-06T02:22:24.816Z,0
2019-04-06T02:23:34.742Z,0
2019-04-06T02:24:44.785Z,0
2019-04-06T02:25:54.698Z,0
2019-04-06T02:27:04.670Z,0
2019-04-06T02:28:14.457Z,0
2019-04-06T02:29:24.124Z,0
2019-04-06T02:30:34.136Z,0
2019-04-06T02:31:44.269Z,0
2019-04-06T02:32:54.266Z,0
2019-04-06T02:34:04.318Z,0
2019-04-06T02:35:14.274Z,0
2019-04-06T02:36:24.549Z,0
2019-04-06T02:37:34.529Z,0
2019-04-06T02:38:44.463Z,0
2019-04-06T02:39:54.624Z,0
2019-04-06T02:41:04.734Z,0
2019-04-06T02:42:14.702Z,0
2019-04-06T02:43:24.896Z,0
2019-04-06T02:44:34.993Z,0
2019-04-06T02:45:45.145Z,0
2019-04-06T02:46:55.255Z,0
2019-04-06T02:48:05.103Z,0
2019-04-06T02:49:15.269Z,0
2019-04-06T02:50:25.217Z,0
2019-04-06T02:51:35.306Z,0
2019-04-06T02:52:45.270Z,0
2019-04-06T02:53:55.217Z,0
2019-04-06T02:55:05.462Z,0
2019-04-06T02:56:15.415Z,0
2019-04-06T02:57:25.349Z,0
2019-04-06T02:58:35.183Z,0
2019-04-06T02:59:45.147Z,0
2019-04-06T03:00:55.115Z,0
2019-04-06T03:02:05.071Z,0
2019-04-06T03:03:15.161Z,0
2019-04-06T03:04:25.056Z,0
2019-04-06T03:05:35.009Z,0
2019-04-06T03:06:44.826Z,0
2019-04-06T03:07:54.749Z,0
2019-04-06T03:09:04.774Z,0
2019-04-06T03:10:14.910Z,0
2019-04-06T03:11:24.979Z,0
2019-04-06T03:12:35.119Z,0
2019-04-06T03:13:45.097Z,0
2019-04-06T03:14:55.348Z,0
2019-04-06T03:16:05.448Z,0
2019-04-06T03:17:15.424Z,0
2019-04-06T03:18:25.412Z,0
2019-04-06T03:19:35.442Z,0
2019-04-06T03:20:45.648Z,0
2019-04-06T03:21:55.918Z,0
2019-04-06T03:23:05.882Z,0
2019-04-06T03:24:15.891Z,0
2019-04-06T03:25:26.339Z,0
2019-04-06T03:26:36.126Z,0
2019-04-06T03:27:46.068Z,0
2019-04-06T03:28:56.060Z,0
2019-04-06T03:30:08.840Z,0
2019-04-06T03:31:27.587Z,0
2019-04-06T03:32:37.795Z,0
2019-04-06T03:33:48.273Z,0
2019-04-06T03:34:58.875Z,0
2019-04-06T03:36:09.055Z,0
2019-04-06T03:37:19.144Z,0
2019-04-06T03:38:28.895Z,0
2019-04-06T03:39:39.001Z,0
2019-04-06T03:40:49.213Z,0
2019-04-06T03:41:59.190Z,0
2019-04-06T03:43:09.282Z,0
2019-04-06T03:44:19.110Z,0
2019-04-06T03:45:28.843Z,0
2019-04-06T03:46:38.913Z,0
2019-04-06T03:47:49.142Z,0
2019-04-06T03:48:59.248Z,0
2019-04-06T03:50:09.280Z,0
2019-04-06T03:51:19.455Z,0
2019-04-06T03:52:29.662Z,0
2019-04-06T03:53:39.816Z,0
2019-04-06T03:54:49.758Z,0
2019-04-06T03:55:59.745Z,0
2019-04-06T03:57:24.128Z,0
2019-04-06T03:58:34.231Z,0
2019-04-06T03:59:43.990Z,0
2019-04-06T04:00:54.082Z,0
2019-04-06T04:02:04.135Z,0
2019-04-06T04:03:14.134Z,0
2019-04-06T04:04:24.330Z,0
2019-04-06T04:05:34.474Z,0
2019-04-06T04:06:44.536Z,0
2019-04-06T04:07:54.907Z,0
2019-04-06T04:09:04.913Z,0
2019-04-06T04:10:15.018Z,0
2019-04-06T04:11:24.977Z,0
2019-04-06T04:12:35.112Z,0
2019-04-06T04:13:45.092Z,0
2019-04-06T04:14:55.270Z,0
2019-04-06T04:16:06.935Z,0
2019-04-06T04:17:16.886Z,0
2019-04-06T04:18:26.662Z,0
2019-04-06T04:19:36.747Z,0
2019-04-06T04:20:46.685Z,0
2019-04-06T04:21:56.658Z,0
2019-04-06T04:23:06.944Z,0
2019-04-06T04:24:17.006Z,0
2019-04-06T04:25:27.260Z,5
2019-04-06T04:26:37.427Z,5
2019-04-06T04:27:47.718Z,5
2019-04-06T04:28:57.865Z,5
2019-04-06T04:30:07.935Z,5
2019-04-06T04:31:18.318Z,5
2019-04-06T04:32:28.509Z,5
2019-04-06T04:33:38.597Z,5
2019-04-06T04:34:48.882Z,10
2019-04-06T04:35:59.287Z,10
2019-04-06T04:37:08.972Z,10
2019-04-06T04:38:18.933Z,10
2019-04-06T04:39:28.868Z,10
2019-04-06T04:40:39.140Z,10
2019-04-06T04:41:49.920Z,15
2019-04-06T04:43:00.118Z,15
2019-04-06T04:44:10.138Z,15
2019-04-06T04:45:20.297Z,15
2019-04-06T04:46:30.240Z,20
2019-04-06T04:47:40.319Z,20
2019-04-06T04:48:50.565Z,20
2019-04-06T04:50:00.829Z,25
2019-04-06T04:51:10.749Z,25
2019-04-06T04:52:20.973Z,25
2019-04-06T04:53:31.140Z,30
2019-04-06T04:54:41.210Z,30
2019-04-06T04:55:51.240Z,30
2019-04-06T04:57:01.170Z,30
2019-04-06T04:58:11.211Z,30
2019-04-06T04:59:21.501Z,30
2019-04-06T05:00:31.688Z,30
2019-04-06T05:01:41.681Z,35
2019-04-06T05:02:51.386Z,35
2019-04-06T05:04:01.305Z,35
2019-04-06T05:05:12.144Z,35
2019-04-06T05:06:22.075Z,35
2019-04-06T05:07:32.189Z,35
2019-04-06T05:08:42.321Z,35
2019-04-06T05:09:52.288Z,35
2019-04-06T05:11:01.969Z,35
2019-04-06T05:12:11.888Z,35
2019-04-06T05:13:21.853Z,35
2019-04-06T05:14:31.844Z,35
2019-04-06T05:15:41.770Z,40
2019-04-06T05:16:51.801Z,40
2019-04-06T05:18:01.758Z,40
2019-04-06T05:19:11.678Z,40
2019-04-06T05:20:23.818Z,45
2019-04-06T05:21:33.953Z,45
2019-04-06T05:22:44.038Z,45
2019-04-06T05:23:53.999Z,50
2019-04-06T05:25:04.348Z,50
2019-04-06T05:26:14.040Z,55
2019-04-06T05:27:23.979Z,55
2019-04-06T05:28:34.028Z,60
2019-04-06T05:29:43.942Z,60
2019-04-06T05:30:53.820Z,60
2019-04-06T05:32:03.942Z,60
2019-04-06T05:33:14.068Z,60
2019-04-06T05:34:23.983Z,60
2019-04-06T05:35:33.940Z,65
2019-04-06T05:36:44.007Z,65
2019-04-06T05:37:53.926Z,70
2019-04-06T05:39:03.881Z,70
2019-04-06T05:40:13.869Z,70
2019-04-06T05:41:23.788Z,70
2019-04-06T05:42:33.712Z,70
2019-04-06T05:43:43.664Z,70
2019-04-06T05:44:53.668Z,70
2019-04-06T05:46:03.502Z,70
2019-04-06T05:47:13.461Z,70
2019-04-06T05:48:23.393Z,65
2019-04-06T05:49:33.425Z,60
2019-04-06T05:50:43.342Z,60
2019-04-06T05:51:53.288Z,60
2019-04-06T05:53:03.210Z,60
2019-04-06T05:54:13.251Z,60
2019-04-06T05:55:24.436Z,65
2019-04-06T05:56:34.883Z,65
2019-04-06T05:57:47.092Z,65
2019-04-06T05:58:57.164Z,70
2019-04-06T06:00:09.314Z,70
2019-04-06T06:01:21.126Z,75
2019-04-06T06:02:31.216Z,80
2019-04-06T06:03:45.170Z,85
2019-04-06T06:04:55.262Z,90
2019-04-06T06:06:05.213Z,90
2019-04-06T06:07:15.274Z,90
2019-04-06T06:08:25.189Z,95
2019-04-06T06:09:35.234Z,100
2019-04-06T06:10:45.690Z,95
2019-04-06T06:11:58.299Z,95
2019-04-06T06:13:08.216Z,95
2019-04-06T06:14:18.154Z,95
2019-04-06T06:15:28.129Z,95
2019-04-06T06:16:38.244Z,95
2019-04-06T06:17:48.345Z,95
2019-04-06T06:18:58.489Z,100
2019-04-06T06:20:08.409Z,100
2019-04-06T06:21:18.382Z,100
2019-04-06T06:22:28.456Z,100
2019-04-06T06:23:38.477Z,95
2019-04-06T06:24:48.486Z,95
2019-04-06T06:25:58.649Z,100
2019-04-06T06:27:08.324Z,110
2019-04-06T06:28:24.200Z,120
2019-04-06T06:29:34.166Z,125
2019-04-06T06:30:44.161Z,130
2019-04-06T06:31:54.066Z,135
2019-04-06T06:33:04.050Z,135
2019-04-06T06:34:14.116Z,135
2019-04-06T06:35:24.123Z,140
2019-04-06T06:36:34.053Z,145
2019-04-06T06:37:44.215Z,155
2019-04-06T06:38:54.240Z,165
2019-04-06T06:40:04.186Z,180
2019-04-06T06:41:14.339Z,205
2019-04-06T06:42:24.286Z,230
2019-04-06T06:43:34.211Z,245
2019-04-06T06:44:44.512Z,255
2019-04-06T06:45:54.684Z,270
2019-04-06T06:47:04.610Z,285
2019-04-06T06:48:14.794Z,295
2019-04-06T06:49:24.785Z,300
2019-04-06T06:50:37.051Z,310
2019-04-06T06:51:47.063Z,330
2019-04-06T06:52:56.996Z,350
2019-04-06T06:54:07.492Z,345
2019-04-06T06:55:17.565Z,345
2019-04-06T06:56:27.603Z,380
2019-04-06T06:57:37.831Z,385
2019-04-06T06:58:47.751Z,385
2019-04-06T06:59:57.687Z,380
2019-04-06T07:01:08.352Z,360
2019-04-06T07:02:18.464Z,345
2019-04-06T07:03:28.393Z,365
2019-04-06T07:04:38.319Z,345
2019-04-06T07:05:48.255Z,330
2019-04-06T07:06:58.177Z,330
2019-04-06T07:08:08.155Z,320
2019-04-06T07:09:18.075Z,335
2019-04-06T07:10:27.994Z,330
2019-04-06T07:11:37.942Z,345
2019-04-06T07:12:48.105Z,380
2019-04-06T07:13:58.513Z,405
2019-04-06T07:15:08.465Z,420
2019-04-06T07:16:18.521Z,430
2019-04-06T07:17:28.195Z,420
2019-04-06T07:18:38.115Z,400
2019-04-06T07:19:48.339Z,360
2019-04-06T07:20:58.493Z,325
2019-04-06T07:22:08.340Z,295
2019-04-06T07:23:18.265Z,275
2019-04-06T07:24:28.198Z,255
2019-04-06T07:25:38.297Z,250
2019-04-06T07:26:50.681Z,250
2019-04-06T07:28:00.545Z,250
2019-04-06T07:29:10.446Z,250
2019-04-06T07:30:20.615Z,250
2019-04-06T07:31:30.878Z,255
2019-04-06T07:32:40.990Z,260
2019-04-06T07:33:51.128Z,285
2019-04-06T07:35:00.848Z,300
2019-04-06T07:36:10.927Z,300
2019-04-06T07:37:20.979Z,310
2019-04-06T07:38:31.071Z,315
2019-04-06T07:39:41.072Z,315
2019-04-06T07:40:51.008Z,310
2019-04-06T07:42:01.136Z,315
2019-04-06T07:43:11.942Z,330
2019-04-06T07:44:21.865Z,360
2019-04-06T07:45:31.830Z,400
2019-04-06T07:46:42.035Z,400
2019-04-06T07:47:52.457Z,430
2019-04-06T07:49:13.241Z,450
2019-04-06T07:50:23.169Z,455
2019-04-06T07:51:33.086Z,450
2019-04-06T07:52:43.003Z,445
2019-04-06T07:53:53.219Z,480
2019-04-06T07:55:03.307Z,480
2019-04-06T07:56:13.256Z,470
2019-04-06T07:57:23.606Z,460
2019-04-06T07:58:33.711Z,490
2019-04-06T07:59:43.679Z,490
2019-04-06T08:00:53.837Z,515
2019-04-06T08:02:04.039Z,530
2019-04-06T08:03:14.353Z,515
2019-04-06T08:04:24.435Z,520
2019-04-06T08:05:34.693Z,470
2019-04-06T08:06:44.925Z,445
2019-04-06T08:07:55.087Z,420
2019-04-06T08:09:05.257Z,400
2019-04-06T08:10:15.445Z,405
2019-04-06T08:11:25.513Z,435
2019-04-06T08:12:35.701Z,455
2019-04-06T08:13:45.637Z,450
2019-04-06T08:14:57.383Z,465
2019-04-06T08:16:07.850Z,465
2019-04-06T08:17:18.078Z,495
2019-04-06T08:18:28.073Z,485
2019-04-06T08:19:37.876Z,475
2019-04-06T08:20:47.859Z,470
2019-04-06T08:21:57.897Z,490
2019-04-06T08:23:08.145Z,500
2019-04-06T08:24:18.283Z,510
2019-04-06T08:25:28.229Z,510
2019-04-06T08:26:38.305Z,485
2019-04-06T08:27:48.663Z,460
2019-04-06T08:29:10.012Z,470
2019-04-06T08:30:19.946Z,465
2019-04-06T08:31:30.033Z,470
2019-04-06T08:32:40.150Z,460
2019-04-06T08:33:50.455Z,450
2019-04-06T08:35:00.524Z,455
2019-04-06T08:36:10.640Z,475
2019-04-06T08:37:20.642Z,475
2019-04-06T08:38:30.866Z,485
2019-04-06T08:39:40.800Z,485
2019-04-06T08:40:50.771Z,470
2019-04-06T08:42:00.869Z,455
2019-04-06T08:43:10.978Z,460
2019-04-06T08:44:20.923Z,465
2019-04-06T08:45:30.913Z,455
2019-04-06T08:46:40.909Z,455
2019-04-06T08:47:50.865Z,450
2019-04-06T08:49:00.794Z,460
2019-04-06T08:50:11.366Z,500
2019-04-06T08:51:22.078Z,525
2019-04-06T08:52:32.179Z,540
2019-04-06T08:53:42.162Z,555
2019-04-06T08:54:52.242Z,570
2019-04-06T08:56:02.383Z,585
2019-04-06T08:57:12.449Z,605
2019-04-06T08:58:22.667Z,610
2019-04-06T08:59:32.797Z,605
2019-04-06T09:00:42.822Z,625
2019-04-06T09:01:52.742Z,635
2019-04-06T09:03:02.790Z,665
2019-04-06T09:04:12.718Z,665
2019-04-06T09:05:22.856Z,685
2019-04-06T09:06:33.287Z,690
2019-04-06T09:07:45.825Z,680
2019-04-06T09:08:55.981Z,645
2019-04-06T09:10:06.260Z,665
2019-04-06T09:11:16.238Z,700
2019-04-06T09:12:26.165Z,695
2019-04-06T09:13:36.093Z,695
2019-04-06T09:14:46.038Z,670
2019-04-06T09:15:56.109Z,670
2019-04-06T09:17:06.141Z,680
2019-04-06T09:18:16.234Z,680
2019-04-06T09:19:25.907Z,660
2019-04-06T09:20:36.301Z,670
2019-04-06T09:21:46.231Z,650
2019-04-06T09:22:56.625Z,640
2019-04-06T09:24:09.034Z,650
2019-04-06T09:25:19.166Z,650
2019-04-06T09:26:29.374Z,645
2019-04-06T09:27:39.302Z,635
2019-04-06T09:28:49.534Z,595
2019-04-06T09:29:59.525Z,590
2019-04-06T09:31:09.371Z,570
2019-04-06T09:32:19.352Z,565
2019-04-06T09:33:29.288Z,540
2019-04-06T09:34:41.067Z,550
2019-04-06T09:35:51.144Z,545
2019-04-06T09:37:01.296Z,545
2019-04-06T09:38:11.512Z,530
2019-04-06T09:39:21.682Z,515
2019-04-06T09:40:32.865Z,515
2019-04-06T09:41:42.791Z,505
2019-04-06T09:42:52.463Z,530
2019-04-06T09:44:02.438Z,575
2019-04-06T09:45:12.536Z,575
2019-04-06T09:46:22.977Z,635
2019-04-06T09:47:35.865Z,660
2019-04-06T09:48:45.932Z,665
2019-04-06T09:49:56.043Z,665
2019-04-06T09:51:06.154Z,690
2019-04-06T09:52:16.317Z,670
2019-04-06T09:53:26.550Z,665
2019-04-06T09:54:36.586Z,650
2019-04-06T09:55:46.834Z,640
2019-04-06T09:56:56.852Z,680
2019-04-06T09:58:07.037Z,690
2019-04-06T09:59:17.393Z,670
2019-04-06T10:00:27.596Z,650
2019-04-06T10:01:47.698Z,645
2019-04-06T10:02:57.370Z,660
2019-04-06T10:04:07.533Z,665
2019-04-06T10:05:17.778Z,615
2019-04-06T10:06:27.987Z,625
2019-04-06T10:07:38.124Z,640
2019-04-06T10:08:48.292Z,645
2019-04-06T10:09:58.466Z,635
2019-04-06T10:11:08.511Z,605
2019-04-06T10:12:18.440Z,590
2019-04-06T10:13:28.700Z,600
2019-04-06T10:14:38.789Z,610
2019-04-06T10:15:48.797Z,605
2019-04-06T10:16:59.066Z,630
2019-04-06T10:18:09.251Z,675
2019-04-06T10:19:19.403Z,685
2019-04-06T10:20:29.613Z,675
2019-04-06T10:21:39.835Z,665
2019-04-06T10:22:50.148Z,660
2019-04-06T10:24:00.377Z,655
2019-04-06T10:25:13.308Z,645
2019-04-06T10:26:23.237Z,615
2019-04-06T10:27:33.466Z,615
2019-04-06T10:28:43.600Z,605
2019-04-06T10:29:59.305Z,595
2019-04-06T10:31:09.645Z,590
2019-04-06T10:32:19.820Z,595
2019-04-06T10:33:29.538Z,590
2019-04-06T10:34:39.743Z,595
2019-04-06T10:35:49.699Z,600
2019-04-06T10:37:00.039Z,605
2019-04-06T10:38:10.063Z,615
2019-04-06T10:39:19.996Z,610
2019-04-06T10:40:29.929Z,610
2019-04-06T10:41:40.053Z,620
2019-04-06T10:42:50.427Z,625
2019-04-06T10:44:00.363Z,625
2019-04-06T10:45:10.602Z,625
2019-04-06T10:46:20.789Z,625
2019-04-06T10:47:31.029Z,615
2019-04-06T10:48:40.967Z,615
2019-04-06T10:49:50.891Z,620
2019-04-06T10:51:00.968Z,620
2019-04-06T10:52:10.685Z,620
2019-04-06T10:53:20.953Z,620
2019-04-06T10:54:31.253Z,610
2019-04-06T10:55:41.375Z,605
2019-04-06T10:56:51.532Z,590
2019-04-06T10:58:01.684Z,605
2019-04-06T10:59:12.926Z,630
2019-04-06T11:00:23.063Z,645
2019-04-06T11:01:33.969Z,645
2019-04-06T11:02:43.939Z,650
2019-04-06T11:03:54.009Z,625
2019-04-06T11:05:04.179Z,620
2019-04-06T11:06:14.413Z,620
2019-04-06T11:07:24.512Z,630
2019-04-06T11:08:34.492Z,675
2019-04-06T11:09:44.424Z,695
2019-04-06T11:10:54.467Z,710
2019-04-06T11:12:04.662Z,715
2019-04-06T11:13:14.856Z,710
2019-04-06T11:14:24.952Z,705
2019-04-06T11:15:35.248Z,795
2019-04-06T11:16:47.612Z,1140
2019-04-06T11:17:58.305Z,1300
2019-04-06T11:19:08.622Z,1330
2019-04-06T11:20:18.606Z,1325
2019-04-06T11:21:28.829Z,1355
2019-04-06T11:22:38.758Z,1305
2019-04-06T11:23:49.115Z,1350
2019-04-06T11:24:59.042Z,1300
2019-04-06T11:26:08.970Z,1315
2019-04-06T11:27:18.906Z,1305
2019-04-06T11:28:28.831Z,1290
2019-04-06T11:29:38.990Z,1280
2019-04-06T11:30:49.051Z,1315
2019-04-06T11:31:59.418Z,1355
2019-04-06T11:33:09.635Z,1410
2019-04-06T11:34:21.630Z,1450
2019-04-06T11:35:32.389Z,1240
2019-04-06T11:36:42.493Z,1090
2019-04-06T11:37:52.990Z,1040
2019-04-06T11:39:03.551Z,1075
2019-04-06T11:40:13.744Z,1115
2019-04-06T11:41:23.943Z,1055
2019-04-06T11:42:34.003Z,1125
2019-04-06T11:43:43.948Z,1380
2019-04-06T11:44:54.172Z,1415
2019-04-06T11:46:04.162Z,1350
2019-04-06T11:47:15.070Z,1315
2019-04-06T11:48:25.204Z,1350
2019-04-06T11:49:35.134Z,1405
2019-04-06T11:50:45.206Z,1395
2019-04-06T11:51:55.143Z,1425
2019-04-06T11:53:05.158Z,1285
2019-04-06T11:54:15.169Z,1350
2019-04-06T11:55:25.401Z,1250
2019-04-06T11:56:35.349Z,1410
2019-04-06T11:57:45.561Z,1345
2019-04-06T11:58:55.352Z,1210
2019-04-06T12:00:05.959Z,1320
2019-04-06T12:01:15.915Z,1345
2019-04-06T12:02:25.611Z,1340
2019-04-06T12:03:35.547Z,1330
2019-04-06T12:04:45.373Z,1315
2019-04-06T12:05:55.500Z,1385
2019-04-06T12:07:08.118Z,1535
2019-04-06T12:08:18.306Z,1390
2019-04-06T12:09:28.350Z,1450
2019-04-06T12:10:38.452Z,1700
2019-04-06T12:11:48.720Z,1655
2019-04-06T12:13:01.164Z,1535
2019-04-06T12:14:11.547Z,1635
2019-04-06T12:15:21.690Z,1870
2019-04-06T12:16:32.191Z,1785
2019-04-06T12:17:42.017Z,1750
2019-04-06T12:18:52.244Z,1795
2019-04-06T12:20:02.305Z,1805
2019-04-06T12:21:12.382Z,1745
2019-04-06T12:22:22.373Z,1615
2019-04-06T12:23:35.577Z,1840
2019-04-06T12:24:46.063Z,1915
2019-04-06T12:25:56.309Z,2085
2019-04-06T12:27:06.453Z,2455
2019-04-06T12:28:16.692Z,2545
2019-04-06T12:29:26.751Z,1955
2019-04-06T12:30:47.357Z,1905
2019-04-06T12:31:57.338Z,1905
2019-04-06T12:33:07.701Z,2040
2019-04-06T12:34:17.647Z,2010
2019-04-06T12:35:27.597Z,2060
2019-04-06T12:36:37.651Z,2090
2019-04-06T12:37:47.909Z,2175
2019-04-06T12:38:57.718Z,2135
2019-04-06T12:40:07.920Z,2325
2019-04-06T12:41:18.604Z,2315
2019-04-06T12:42:28.830Z,2275
2019-04-06T12:43:41.450Z,2145
2019-04-06T12:44:52.142Z,2315
2019-04-06T12:46:02.547Z,2475
2019-04-06T12:47:13.052Z,2470
2019-04-06T12:48:23.319Z,2450
2019-04-06T12:49:33.433Z,2145
2019-04-06T12:50:43.412Z,1430
2019-04-06T12:51:53.488Z,2155
2019-04-06T12:53:03.952Z,2460
2019-04-06T12:54:14.076Z,2495
2019-04-06T12:55:24.440Z,2475
2019-04-06T12:56:34.816Z,2435
2019-04-06T12:57:45.071Z,2415
2019-04-06T12:58:55.204Z,2350
2019-04-06T13:00:05.537Z,2345
2019-04-06T13:01:15.708Z,2355
2019-04-06T13:02:26.072Z,2370
2019-04-06T13:03:36.160Z,2340
2019-04-06T13:04:46.745Z,2335
2019-04-06T13:05:56.461Z,2275
2019-04-06T13:07:06.461Z,2205
2019-04-06T13:08:16.777Z,2235
2019-04-06T13:09:26.721Z,2245
2019-04-06T13:10:36.996Z,2315
2019-04-06T13:11:47.213Z,2300
2019-04-06T13:12:57.667Z,2335
2019-04-06T13:14:07.959Z,2360
2019-04-06T13:15:17.949Z,2365
2019-04-06T13:16:30.594Z,2335
2019-04-06T13:17:40.879Z,2410
2019-04-06T13:18:51.154Z,2415
2019-04-06T13:20:01.515Z,2395
2019-04-06T13:21:11.831Z,2350
2019-04-06T13:22:21.906Z,2315
2019-04-06T13:23:31.993Z,2325
2019-04-06T13:24:41.932Z,2265
2019-04-06T13:25:52.345Z,2225
2019-04-06T13:27:02.787Z,2225
2019-04-06T13:28:13.170Z,2220
2019-04-06T13:29:22.862Z,2195
2019-04-06T13:30:33.503Z,2180
2019-04-06T13:31:43.547Z,2170
2019-04-06T13:32:53.600Z,2230
2019-04-06T13:34:03.961Z,2255
2019-04-06T13:35:13.994Z,2220
2019-04-06T13:36:24.238Z,2250
2019-04-06T13:37:34.543Z,2240
2019-04-06T13:38:44.750Z,2245
2019-04-06T13:39:54.688Z,2300
2019-04-06T13:41:04.914Z,2220
2019-04-06T13:42:15.222Z,2200
2019-04-06T13:43:25.675Z,2265
2019-04-06T13:44:35.632Z,2235
2019-04-06T13:45:45.888Z,2220
2019-04-06T13:46:59.275Z,2145
2019-04-06T13:48:09.562Z,2205
2019-04-06T13:49:19.870Z,2115
2019-04-06T13:50:30.145Z,1935
2019-04-06T13:51:40.704Z,1620
2019-04-06T13:52:50.654Z,1480
2019-04-06T13:54:00.876Z,1805
2019-04-06T13:55:11.425Z,1975
2019-04-06T13:56:21.445Z,2020
2019-04-06T13:57:31.500Z,2100
2019-04-06T13:58:41.619Z,1930
2019-04-06T13:59:51.650Z,1880
2019-04-06T14:01:13.245Z,1845
2019-04-06T14:02:25.419Z,1680
2019-04-06T14:03:35.366Z,1345
2019-04-06T14:04:46.844Z,1215
2019-04-06T14:05:57.009Z,1215
2019-04-06T14:07:07.515Z,1440
2019-04-06T14:08:18.119Z,1910
2019-04-06T14:09:28.340Z,2055
2019-04-06T14:10:38.368Z,1795
2019-04-06T14:11:48.778Z,1620
2019-04-06T14:12:58.548Z,1740
2019-04-06T14:14:08.993Z,1645
2019-04-06T14:15:19.354Z,1785
2019-04-06T14:16:30.256Z,2035
2019-04-06T14:17:40.382Z,1990
2019-04-06T14:18:50.203Z,2045
2019-04-06T14:20:00.445Z,2055
2019-04-06T14:21:10.518Z,1995
2019-04-06T14:22:20.575Z,1995
2019-04-06T14:23:31.102Z,2005
2019-04-06T14:24:41.173Z,2055
2019-04-06T14:25:53.289Z,2015
2019-04-06T14:27:04.258Z,2075
2019-04-06T14:28:16.607Z,1865
2019-04-06T14:29:27.060Z,1700
2019-04-06T14:30:37.552Z,1605
2019-04-06T14:31:47.839Z,1680
2019-04-06T14:32:58.245Z,1745
2019-04-06T14:34:08.898Z,1785
2019-04-06T14:35:19.193Z,1915
2019-04-06T14:36:29.420Z,2015
2019-04-06T14:37:39.805Z,2080
2019-04-06T14:38:50.163Z,2150
2019-04-06T14:40:00.198Z,1750
2019-04-06T14:41:10.405Z,1430
2019-04-06T14:42:20.094Z,1735
2019-04-06T14:43:29.827Z,1805
2019-04-06T14:44:40.097Z,1955
2019-04-06T14:45:50.472Z,1930
2019-04-06T14:47:00.792Z,2005
2019-04-06T14:48:12.261Z,1950
2019-04-06T14:49:40.338Z,1945
2019-04-06T14:50:50.378Z,1905
2019-04-06T14:52:01.042Z,1870
2019-04-06T14:53:11.461Z,1925
2019-04-06T14:54:21.939Z,1970
2019-04-06T14:55:31.951Z,1900
2019-04-06T14:56:42.179Z,1775
2019-04-06T14:57:52.677Z,1655
2019-04-06T14:59:03.131Z,1775
2019-04-06T15:00:13.813Z,1840
2019-04-06T15:01:24.072Z,1815
2019-04-06T15:02:34.890Z,1775
2019-04-06T15:03:45.133Z,1790
2019-04-06T15:04:55.119Z,1815
2019-04-06T15:06:05.433Z,1835
2019-04-06T15:07:21.953Z,1780
2019-04-06T15:08:32.297Z,1755
2019-04-06T15:09:42.580Z,1650
2019-04-06T15:10:52.895Z,1635
2019-04-06T15:12:03.086Z,1720
2019-04-06T15:13:13.473Z,1710
2019-04-06T15:14:24.205Z,1665
2019-04-06T15:15:34.574Z,1525
2019-04-06T15:16:45.047Z,1280
2019-04-06T15:17:57.900Z,1170
2019-04-06T15:19:08.710Z,865
2019-04-06T15:20:18.650Z,1110
2019-04-06T15:21:29.034Z,1270
2019-04-06T15:22:39.065Z,1450
2019-04-06T15:23:49.322Z,1650
2019-04-06T15:24:59.140Z,1410
2019-04-06T15:26:09.123Z,1210
2019-04-06T15:27:19.504Z,1005
2019-04-06T15:28:29.751Z,910
2019-04-06T15:29:39.822Z,1005
2019-04-06T15:30:49.880Z,1015
2019-04-06T15:32:01.325Z,1160
2019-04-06T15:33:11.612Z,860
2019-04-06T15:34:22.996Z,755
2019-04-06T15:35:33.647Z,700
2019-04-06T15:36:43.589Z,650
2019-04-06T15:37:53.757Z,635
2019-04-06T15:39:03.707Z,645
2019-04-06T15:40:13.662Z,660
2019-04-06T15:41:24.034Z,655
2019-04-06T15:42:34.458Z,660
2019-04-06T15:43:44.781Z,630
2019-04-06T15:44:55.228Z,660
2019-04-06T15:46:05.592Z,635
2019-04-06T15:47:15.991Z,595
2019-04-06T15:48:40.240Z,560
2019-04-06T15:49:51.225Z,545
2019-04-06T15:51:01.173Z,525
2019-04-06T15:52:23.256Z,665
2019-04-06T15:53:33.607Z,730
2019-04-06T15:54:43.774Z,760
2019-04-06T15:55:53.704Z,625
2019-04-06T15:57:03.514Z,560
2019-04-06T15:58:14.875Z,605
2019-04-06T15:59:27.870Z,665
2019-04-06T16:00:38.198Z,600
2019-04-06T16:01:58.454Z,550
2019-04-06T16:03:09.797Z,505
2019-04-06T16:04:20.107Z,470
2019-04-06T16:05:30.461Z,430
2019-04-06T16:06:41.070Z,410
2019-04-06T16:07:51.506Z,410
2019-04-06T16:09:01.824Z,435
2019-04-06T16:10:12.253Z,480
2019-04-06T16:11:22.484Z,480
2019-04-06T16:12:32.418Z,465
2019-04-06T16:13:42.922Z,490
2019-04-06T16:14:53.304Z,500
2019-04-06T16:16:03.876Z,435
2019-04-06T16:17:14.387Z,390
2019-04-06T16:18:24.796Z,400
2019-04-06T16:19:35.142Z,450
2019-04-06T16:20:46.534Z,500
2019-04-06T16:21:57.065Z,450
2019-04-06T16:23:07.645Z,385